Time;durP1;ratioP1;P1;durP2;ratioP2;P2;SDS_P1;SDS_P2;PMS_P1;PMS_P2;Temp;Humidity;BMP_temperature;BMP_pressure;BME280_temperature;BME280_humidity;BME280_pressure;Samples;Min_cycle;Max_cycle;Signal;HPM_P1;HPM_P2
2022/11/12 00:00:25;;;;;;;6.00;4.57;;;;;;;5.70;83.56;102429.31;5047774;28;20209;-73
2022/11/12 00:02:53;;;;;;;4.97;3.50;;;;;;;5.69;84.02;102438.13;5053414;28;20717;-74
2022/11/12 00:05:20;;;;;;;4.50;4.07;;;;;;;5.68;83.97;102425.81;5050900;28;20200;-71
2022/11/12 00:07:47;;;;;;;5.10;4.17;;;;;;;5.63;83.58;102439.97;5052888;28;20200;-74
2022/11/12 00:10:13;;;;;;;6.57;4.73;;;;;;;5.54;83.31;102433.94;5057192;28;20201;-72
2022/11/12 00:12:40;;;;;;;6.97;4.47;;;;;;;5.49;83.49;102443.69;5052023;28;20216;-75
2022/11/12 00:15:07;;;;;;;4.30;3.43;;;;;;;5.46;83.69;102441.09;5051685;28;20208;-73
2022/11/12 00:17:33;;;;;;;5.77;3.37;;;;;;;5.43;84.19;102440.25;5047106;28;20231;-74
2022/11/12 00:20:01;;;;;;;4.40;3.70;;;;;;;5.39;84.25;102439.41;5046559;28;20213;-73
2022/11/12 00:22:28;;;;;;;4.93;3.67;;;;;;;5.39;84.19;102436.78;5047904;28;20578;-72
2022/11/12 00:24:54;;;;;;;4.10;3.47;;;;;;;5.40;84.91;102440.28;5052829;28;20215;-72
2022/11/12 00:27:21;;;;;;;4.20;3.47;;;;;;;5.40;84.89;102445.59;5046194;28;20276;-75
2022/11/12 00:29:47;;;;;;;4.70;3.17;;;;;;;5.40;84.88;102443.81;5048580;28;20540;-71
2022/11/12 00:32:14;;;;;;;5.10;3.57;;;;;;;5.38;85.04;102440.31;5048649;28;20817;-77
2022/11/12 00:34:41;;;;;;;4.47;3.17;;;;;;;5.36;84.73;102450.06;5047219;28;20714;-73
2022/11/12 00:37:09;;;;;;;3.97;3.37;;;;;;;5.32;84.63;102443.06;5048223;28;20206;-72
2022/11/12 00:39:35;;;;;;;4.80;3.47;;;;;;;5.27;85.18;102446.63;5056552;28;20240;-74
2022/11/12 00:42:02;;;;;;;3.77;3.23;;;;;;;5.23;84.59;102446.69;5047737;28;20224;-72
2022/11/12 00:44:29;;;;;;;4.40;3.10;;;;;;;5.21;84.67;102444.94;5057832;28;20225;-74
2022/11/12 00:46:55;;;;;;;4.60;3.13;;;;;;;5.18;84.88;102448.53;5050565;28;20266;-71
2022/11/12 00:49:22;;;;;;;3.97;3.03;;;;;;;5.16;84.85;102447.66;5047443;28;20201;-72
2022/11/12 00:51:49;;;;;;;4.97;3.90;;;;;;;5.14;85.36;102448.56;5046948;28;20686;-73
2022/11/12 00:54:17;;;;;;;4.07;3.40;;;;;;;5.10;85.31;102453.00;5054319;28;20784;-73
2022/11/12 00:56:45;;;;;;;7.00;4.77;;;;;;;5.06;84.94;102450.41;5054702;28;20201;-74
2022/11/12 00:59:12;;;;;;;5.80;4.00;;;;;;;5.04;85.13;102449.56;5051877;28;20213;-73
2022/11/12 01:01:39;;;;;;;5.53;3.90;;;;;;;5.02;84.96;102454.84;5044432;28;20233;-73
2022/11/12 01:04:06;;;;;;;4.60;3.27;;;;;;;5.00;85.16;102459.31;5064604;22;20240;-75
2022/11/12 01:06:33;;;;;;;4.73;2.90;;;;;;;4.99;85.19;102461.97;5033073;28;20202;-74
2022/11/12 01:09:00;;;;;;;5.30;3.10;;;;;;;4.97;85.35;102463.75;5020226;28;20209;-74
2022/11/12 01:11:29;;;;;;;4.07;3.00;;;;;;;4.94;85.61;102463.78;5024271;28;20537;-74
2022/11/12 01:13:59;;;;;;;3.77;2.93;;;;;;;4.92;85.64;102462.91;5021788;28;20720;-74
2022/11/12 01:16:28;;;;;;;4.00;3.00;;;;;;;4.91;85.64;102463.78;5015095;28;20203;-74
2022/11/12 01:18:57;;;;;;;4.97;3.20;;;;;;;4.89;85.79;102467.31;5003359;28;20210;-74
2022/11/12 01:21:26;;;;;;;4.23;3.20;;;;;;;4.89;85.77;102461.19;5012250;28;20238;-74
2022/11/12 01:23:52;;;;;;;5.50;2.73;;;;;;;4.88;85.63;102470.84;5009452;28;20202;-74
2022/11/12 01:26:21;;;;;;;3.90;2.67;;;;;;;4.86;85.93;102464.72;5010564;28;20691;-74
2022/11/12 01:28:49;;;;;;;3.63;2.70;;;;;;;4.85;86.22;102473.53;5012088;28;20714;-74
2022/11/12 01:31:20;;;;;;;6.23;2.70;;;;;;;4.84;86.23;102476.19;5013367;28;20835;-74
2022/11/12 01:33:49;;;;;;;3.50;2.67;;;;;;;4.83;85.95;102480.63;5011811;28;20210;-74
2022/11/12 01:36:18;;;;;;;3.77;2.50;;;;;;;4.82;86.43;102478.88;5006112;28;20202;-74
2022/11/12 01:38:46;;;;;;;2.80;2.33;;;;;;;4.81;86.71;102473.59;5013650;28;20191;-74
2022/11/12 01:41:15;;;;;;;4.00;2.20;;;;;;;4.79;86.60;102467.47;5009035;28;20226;-74
2022/11/12 01:43:41;;;;;;;3.67;2.10;;;;;;;4.78;86.51;102465.72;5016437;28;20199;-74
2022/11/12 01:46:16;;;;;;;2.43;2.23;;;;;;;4.77;86.85;102469.22;5015596;28;20202;-74
2022/11/12 01:48:48;;;;;;;3.17;1.80;;;;;;;4.77;86.69;102470.09;5011652;28;20202;-74
2022/11/12 01:51:15;;;;;;;3.33;2.03;;;;;;;4.76;87.24;102468.34;5018110;28;20676;-74
2022/11/12 01:53:48;;;;;;;2.60;2.13;;;;;;;4.74;87.32;102472.78;5016878;28;20195;-74
2022/11/12 01:56:16;;;;;;;3.60;1.93;;;;;;;4.71;87.17;102456.97;5022026;28;20210;-74
2022/11/12 01:58:45;;;;;;;2.40;1.80;;;;;;;4.72;86.90;102458.72;5017760;28;20588;-74
2022/11/12 02:01:13;;;;;;;4.13;2.47;;;;;;;4.73;87.35;102457.81;5011026;28;20226;-74
2022/11/12 02:03:39;;;;;;;3.07;2.33;;;;;;;4.77;88.23;102456.91;5011143;28;20199;-74
2022/11/12 02:06:09;;;;;;;6.53;2.63;;;;;;;4.81;88.76;102444.56;5019416;28;20219;-74
2022/11/12 02:08:38;;;;;;;4.40;2.33;;;;;;;4.92;89.47;102449.72;5016207;28;20214;-74
2022/11/12 02:11:12;;;;;;;7.33;3.27;;;;;;;5.03;89.75;102447.81;5007423;28;20210;-74
2022/11/12 02:13:57;;;;;;;5.53;3.20;;;;;;;5.13;90.09;102446.81;5009139;28;20670;-75
2022/11/12 02:16:26;;;;;;;4.80;2.43;;;;;;;5.20;90.75;102446.72;5007060;28;20680;-74
2022/11/12 02:18:53;;;;;;;3.57;2.47;;;;;;;5.26;91.13;102445.75;5004693;28;20222;-74
2022/11/12 02:21:21;;;;;;;4.67;2.70;;;;;;;5.31;91.73;102443.06;5009048;28;20227;-74
2022/11/12 02:23:57;;;;;;;4.20;2.60;;;;;;;5.33;91.70;102449.22;5011178;28;20210;-73
2022/11/12 02:26:25;;;;;;;3.13;2.10;;;;;;;5.32;91.80;102455.41;4996510;28;20231;-74
2022/11/12 02:28:51;;;;;;;3.70;2.47;;;;;;;5.32;92.23;102453.63;5000464;28;20218;-76
2022/11/12 02:31:18;;;;;;;3.47;2.70;;;;;;;5.31;91.79;102456.28;5002810;28;20206;-73
2022/11/12 02:33:44;;;;;;;3.70;2.90;;;;;;;5.27;91.84;102457.22;5000000;28;20195;-74
2022/11/12 02:36:10;;;;;;;4.00;2.93;;;;;;;5.24;91.50;102460.75;4997027;28;20219;-74
2022/11/12 02:38:38;;;;;;;4.40;2.70;;;;;;;5.20;91.80;102459.03;4995665;28;20199;-73
2022/11/12 02:41:05;;;;;;;4.37;2.73;;;;;;;5.17;91.60;102451.19;4997906;28;20195;-73
2022/11/12 02:43:31;;;;;;;3.67;2.43;;;;;;;5.15;91.13;102456.47;5013712;28;20199;-74
2022/11/12 02:45:58;;;;;;;4.43;2.50;;;;;;;5.17;91.79;102453.81;5019586;28;20635;-73
2022/11/12 02:48:24;;;;;;;4.60;2.70;;;;;;;5.19;91.84;102450.28;5012839;28;20204;-73
2022/11/12 02:50:51;;;;;;;3.40;2.87;;;;;;;5.21;92.28;102452.88;5010846;28;20214;-74
2022/11/12 02:53:17;;;;;;;3.57;2.47;;;;;;;5.22;92.35;102450.22;5011959;28;20199;-74
2022/11/12 02:55:45;;;;;;;6.90;2.63;;;;;;;5.24;92.34;102442.25;5020701;28;20223;-74
2022/11/12 02:58:11;;;;;;;4.83;2.60;;;;;;;5.22;91.94;102442.28;5010458;28;20206;-74
2022/11/12 03:00:38;;;;;;;4.10;3.10;;;;;;;5.19;92.08;102444.13;5015221;28;20199;-73
2022/11/12 03:03:04;;;;;;;3.53;2.30;;;;;;;5.12;91.80;102442.44;5012484;28;20225;-73
2022/11/12 03:05:33;;;;;;;3.77;2.57;;;;;;;5.05;91.33;102438.09;5006184;28;20234;-73
2022/11/12 03:08:01;;;;;;;4.07;2.40;;;;;;;4.99;91.37;102440.84;5017393;28;20198;-73
2022/11/12 03:10:28;;;;;;;3.83;2.60;;;;;;;4.95;91.25;102440.00;5010270;28;20199;-74
2022/11/12 03:12:58;;;;;;;4.77;3.03;;;;;;;4.91;90.84;102443.56;5015404;28;20205;-74
2022/11/12 03:15:24;;;;;;;4.17;2.80;;;;;;;4.89;91.36;102447.97;5009443;28;20219;-74
2022/11/12 03:17:51;;;;;;;3.87;2.27;;;;;;;4.88;91.40;102444.47;5015813;28;20199;-74
2022/11/12 03:20:18;;;;;;;3.73;2.33;;;;;;;4.88;91.47;102441.81;5008721;28;20214;-74
2022/11/12 03:22:55;;;;;;;3.40;2.83;;;;;;;4.86;91.53;102433.03;5011182;28;20772;-74
2022/11/12 03:25:22;;;;;;;4.10;2.80;;;;;;;4.86;91.09;102445.38;5002717;28;20246;-73
2022/11/12 03:27:48;;;;;;;3.83;2.83;;;;;;;4.85;91.56;102455.03;5008227;28;20203;-73
2022/11/12 03:30:16;;;;;;;3.07;2.77;;;;;;;4.82;91.00;102457.75;5010740;28;20209;-74
2022/11/12 03:32:42;;;;;;;3.30;2.60;;;;;;;4.78;91.09;102450.75;5001892;28;20199;-74
2022/11/12 03:35:09;;;;;;;5.33;3.00;;;;;;;4.76;91.00;102446.38;5013011;28;20860;-74
2022/11/12 03:37:35;;;;;;;5.47;2.73;;;;;;;4.74;90.98;102453.41;5015559;28;20230;-73
2022/11/12 03:40:02;;;;;;;3.17;2.43;;;;;;;4.70;91.21;102444.66;5002537;28;20203;-74
2022/11/12 03:42:28;;;;;;;4.17;3.30;;;;;;;4.68;91.03;102449.06;5017794;28;20386;-74
2022/11/12 03:44:55;;;;;;;3.00;2.50;;;;;;;4.67;91.31;102452.59;5005124;28;20226;-74
2022/11/12 03:47:23;;;;;;;4.63;2.40;;;;;;;4.64;91.26;102441.22;5012975;28;20206;-74
2022/11/12 03:49:49;;;;;;;3.73;2.40;;;;;;;4.61;90.77;102442.13;5009115;28;20207;-73
2022/11/12 03:52:15;;;;;;;6.60;2.50;;;;;;;4.58;91.34;102447.44;5010134;28;20199;-73
2022/11/12 03:54:42;;;;;;;4.10;2.60;;;;;;;4.48;90.33;102449.28;5010392;28;20828;-73
2022/11/12 03:57:08;;;;;;;3.23;2.37;;;;;;;4.42;90.76;102451.09;5013077;28;20679;-74
2022/11/12 03:59:35;;;;;;;3.50;2.57;;;;;;;4.37;90.58;102453.78;5011550;28;20680;-74
2022/11/12 04:02:01;;;;;;;6.53;2.90;;;;;;;4.32;90.12;102450.31;5009597;28;20218;-74
2022/11/12 04:08:34;;;;;;;4.33;2.80;;;;;;;4.30;90.29;102448.59;5012626;28;20888;-73
2022/11/12 04:09:59;;;;;;;5.37;3.30;;;;;;;4.24;90.59;102448.63;5012677;28;20225;-74
2022/11/12 04:15:10;;;;;;;5.27;3.03;;;;;;;4.21;90.57;102446.00;5016727;28;20237;-73
2022/11/12 04:23:06;;;;;;;5.67;3.20;;;;;;;4.17;90.74;102435.50;5015838;28;20225;-73
2022/11/12 04:28:16;;;;;;;3.80;2.40;;;;;;;4.10;90.90;102441.72;5012341;28;20205;-73
2022/11/12 04:30:42;;;;;;;3.37;2.50;;;;;;;4.01;89.63;102440.91;5008564;28;20205;-73
2022/11/12 04:33:08;;;;;;;3.27;2.10;;;;;;;3.91;90.19;102442.75;5012918;28;20207;-73
2022/11/12 04:35:36;;;;;;;3.63;2.40;;;;;;;3.84;89.58;102446.28;5007811;28;21867;-74
2022/11/12 04:38:02;;;;;;;3.97;3.20;;;;;;;3.79;90.24;102446.31;5007055;28;20214;-73
2022/11/12 04:46:01;;;;;;;6.67;3.30;;;;;;;3.76;90.22;102442.84;5009645;28;20271;-73
2022/11/12 04:48:28;;;;;;;6.10;3.50;;;;;;;3.76;90.51;102442.84;5007257;28;20202;-74
2022/11/12 04:50:58;;;;;;;5.83;4.17;;;;;;;3.75;90.69;102441.97;5013456;28;20292;-74
2022/11/12 04:53:25;;;;;;;5.83;3.23;;;;;;;3.74;90.66;102440.22;5006540;28;20199;-73
2022/11/12 04:55:53;;;;;;;5.07;2.90;;;;;;;3.71;90.91;102450.78;5014984;28;20237;-74
2022/11/12 04:58:20;;;;;;;4.10;3.20;;;;;;;3.66;90.48;102435.88;5007138;28;20208;-74
2022/11/12 05:00:46;;;;;;;4.50;3.13;;;;;;;3.61;90.60;102440.28;5016240;28;20196;-73
2022/11/12 05:03:13;;;;;;;3.50;3.13;;;;;;;3.59;90.84;102439.44;5005904;28;20432;-74
2022/11/12 05:05:39;;;;;;;3.50;2.77;;;;;;;3.55;90.64;102438.59;5015221;28;20230;-74
2022/11/12 05:08:07;;;;;;;5.30;3.70;;;;;;;3.56;91.09;102448.25;5014867;28;20699;-76
2022/11/12 05:10:33;;;;;;;6.27;4.33;;;;;;;3.56;91.42;102447.38;5015742;28;20400;-74
2022/11/12 05:13:00;;;;;;;5.20;3.40;;;;;;;3.54;91.01;102443.88;5010537;28;20203;-73
2022/11/12 05:15:27;;;;;;;4.27;2.90;;;;;;;3.51;91.02;102443.88;5011662;28;20218;-73
2022/11/12 05:17:53;;;;;;;4.10;3.07;;;;;;;3.47;90.89;102441.25;5014779;28;20209;-74
2022/11/12 05:20:20;;;;;;;3.17;2.63;;;;;;;3.44;90.57;102438.63;5018028;28;20215;-74
2022/11/12 05:22:46;;;;;;;4.60;2.87;;;;;;;3.42;90.69;102444.78;5007705;28;20227;-74
2022/11/12 05:25:14;;;;;;;6.83;3.13;;;;;;;3.41;91.46;102449.19;5008122;28;20310;-73
2022/11/12 05:27:40;;;;;;;4.87;2.40;;;;;;;3.41;90.74;102450.94;5012286;28;20203;-73
2022/11/12 05:30:08;;;;;;;3.07;2.60;;;;;;;3.40;91.33;102442.16;5012997;28;20198;-73
2022/11/12 05:32:34;;;;;;;4.20;3.00;;;;;;;3.38;91.39;102443.97;5006540;28;20313;-73
2022/11/12 05:35:01;;;;;;;3.07;2.50;;;;;;;3.35;91.24;102446.59;5003755;28;20227;-73
2022/11/12 05:37:27;;;;;;;3.40;2.90;;;;;;;3.31;90.99;102452.75;5014862;28;20206;-73
2022/11/12 05:39:54;;;;;;;4.87;3.07;;;;;;;3.28;91.09;102439.59;5013413;28;20572;-73
2022/11/12 05:42:22;;;;;;;3.40;2.70;;;;;;;3.26;90.24;102444.00;5007152;28;20226;-73
2022/11/12 05:44:48;;;;;;;3.80;2.80;;;;;;;3.25;90.82;102444.88;5008263;28;20234;-73
2022/11/12 05:47:15;;;;;;;4.47;2.90;;;;;;;3.25;90.63;102447.50;5007476;28;20235;-73
2022/11/12 05:49:41;;;;;;;3.30;2.90;;;;;;;3.26;91.18;102444.00;5008099;28;20302;-74
2022/11/12 05:52:08;;;;;;;4.30;2.57;;;;;;;3.28;91.58;102444.00;5005534;28;20214;-74
2022/11/12 05:54:34;;;;;;;4.07;2.80;;;;;;;3.28;91.43;102450.13;5007622;28;20222;-73
2022/11/12 05:57:01;;;;;;;3.93;2.93;;;;;;;3.28;91.78;102444.00;5010973;28;20198;-73
2022/11/12 05:59:29;;;;;;;6.07;2.87;;;;;;;3.28;91.53;102446.63;5002825;28;20194;-73
2022/11/12 06:01:55;;;;;;;5.20;3.50;;;;;;;3.26;90.82;102445.75;5007980;28;20206;-73
2022/11/12 06:04:22;;;;;;;5.03;3.73;;;;;;;3.23;90.91;102441.38;5010423;28;20237;-73
2022/11/12 06:06:48;;;;;;;3.40;3.10;;;;;;;3.18;91.02;102440.53;5007580;28;20204;-73
2022/11/12 06:09:15;;;;;;;5.10;3.50;;;;;;;3.08;90.17;102439.69;5005066;28;20199;-73
2022/11/12 06:11:41;;;;;;;3.83;3.30;;;;;;;3.02;90.04;102436.22;5016438;28;20209;-73
2022/11/12 06:14:07;;;;;;;3.40;2.87;;;;;;;2.96;90.70;102430.97;5011966;28;20735;-73
2022/11/12 06:16:35;;;;;;;5.47;3.90;;;;;;;2.92;90.34;102443.25;5008837;28;20675;-73
2022/11/12 06:19:02;;;;;;;4.70;3.30;;;;;;;2.92;90.30;102437.13;5012277;28;20228;-73
2022/11/12 06:21:28;;;;;;;3.97;3.53;;;;;;;2.91;90.36;102440.63;5018155;28;20214;-74
2022/11/12 06:23:56;;;;;;;6.23;4.10;;;;;;;2.90;90.32;102444.13;5015475;28;20214;-74
2022/11/12 06:26:25;;;;;;;5.33;4.67;;;;;;;2.90;91.39;102447.66;5014912;28;20206;-73
2022/11/12 06:28:52;;;;;;;21.40;5.30;;;;;;;2.93;91.28;102452.03;5011226;28;20219;-74
2022/11/12 06:31:19;;;;;;;4.93;4.43;;;;;;;2.94;91.37;102453.78;5012168;28;20639;-73
2022/11/12 06:33:48;;;;;;;4.10;3.70;;;;;;;2.95;91.55;102453.78;5014758;28;20610;-73
2022/11/12 06:36:16;;;;;;;4.90;3.50;;;;;;;2.94;91.21;102453.78;5021240;28;20210;-73
2022/11/12 06:38:44;;;;;;;6.50;4.17;;;;;;;2.92;91.75;102452.91;5013337;28;20198;-74
2022/11/12 06:41:11;;;;;;;5.00;3.63;;;;;;;2.91;91.59;102461.69;5015696;28;20206;-73
2022/11/12 06:43:38;;;;;;;6.30;4.00;;;;;;;2.91;92.05;102464.31;5017183;28;20205;-73
2022/11/12 06:46:07;;;;;;;4.40;3.90;;;;;;;2.90;91.56;102466.06;5015408;28;20203;-73
2022/11/12 06:48:34;;;;;;;7.20;4.00;;;;;;;2.89;91.73;102464.31;5011218;28;20195;-73
2022/11/12 06:51:08;;;;;;;8.17;4.80;;;;;;;2.90;91.88;102465.19;5015380;28;20214;-74
2022/11/12 06:53:35;;;;;;;9.27;4.40;;;;;;;2.89;91.75;102480.09;5009348;28;20672;-73
2022/11/12 06:56:02;;;;;;;4.97;3.70;;;;;;;2.90;92.30;102476.59;5011790;28;20202;-73
2022/11/12 06:58:28;;;;;;;5.00;3.70;;;;;;;2.90;92.63;102481.84;5011172;28;20340;-73
2022/11/12 07:00:55;;;;;;;7.80;4.70;;;;;;;2.91;91.71;102472.19;5008283;28;20201;-73
2022/11/12 07:03:21;;;;;;;6.30;4.87;;;;;;;2.93;92.91;102478.34;5012335;28;20195;-73
2022/11/12 07:05:48;;;;;;;5.47;4.37;;;;;;;2.95;92.56;102479.22;5049977;22;20226;-71
2022/11/12 07:08:16;;;;;;;6.60;4.20;;;;;;;2.95;92.92;102488.00;5035382;28;20640;-71
2022/11/12 07:10:42;;;;;;;5.83;4.20;;;;;;;2.97;92.28;102490.63;5029359;28;20289;-71
2022/11/12 07:13:09;;;;;;;5.57;4.70;;;;;;;2.98;92.84;102487.13;5026779;28;20228;-71
2022/11/12 07:15:35;;;;;;;6.53;4.80;;;;;;;2.99;93.41;102481.84;5030205;28;20233;-71
2022/11/12 07:18:02;;;;;;;6.60;4.90;;;;;;;3.01;93.51;102480.09;5041461;28;20205;-71
2022/11/12 07:20:28;;;;;;;5.80;4.77;;;;;;;3.04;93.88;102482.72;5036624;28;20206;-71
2022/11/12 07:22:55;;;;;;;6.67;4.90;;;;;;;3.07;93.59;102476.53;5028013;28;20202;-71
2022/11/12 07:25:23;;;;;;;6.43;4.70;;;;;;;3.12;93.85;102480.03;5037575;28;20229;-71
2022/11/12 07:27:49;;;;;;;7.27;4.67;;;;;;;3.12;94.46;102474.78;5029825;28;20216;-71
2022/11/12 07:30:17;;;;;;;7.63;4.80;;;;;;;3.14;94.03;102483.53;5031882;28;20748;-71
2022/11/12 07:32:43;;;;;;;5.63;4.47;;;;;;;3.17;94.32;102485.28;5032071;28;20237;-71
2022/11/12 07:35:10;;;;;;;5.47;4.60;;;;;;;3.18;94.86;102485.28;5034639;28;20242;-71
2022/11/12 07:37:37;;;;;;;7.40;4.83;;;;;;;3.21;94.72;102485.28;5035848;28;20209;-70
2022/11/12 07:40:04;;;;;;;6.80;5.43;;;;;;;3.26;95.06;102486.13;5026280;28;20206;-71
2022/11/12 07:42:33;;;;;;;7.57;5.53;;;;;;;3.32;95.61;102482.59;5037797;28;20210;-72
2022/11/12 07:45:00;;;;;;;8.43;4.60;;;;;;;3.37;95.67;102479.06;5034746;28;20374;-71
2022/11/12 07:47:27;;;;;;;5.57;4.57;;;;;;;3.41;95.59;102478.16;5028614;28;20730;-71
2022/11/12 07:49:54;;;;;;;6.87;4.43;;;;;;;3.44;96.37;102478.16;5023767;28;20297;-71
2022/11/12 07:52:21;;;;;;;6.57;5.20;;;;;;;3.45;96.18;102482.53;5027221;28;20574;-71
2022/11/12 07:54:47;;;;;;;6.97;5.30;;;;;;;3.48;96.49;102490.41;5033526;28;20322;-71
2022/11/12 07:57:14;;;;;;;6.40;4.83;;;;;;;3.52;96.82;102485.16;5029391;28;20217;-70
2022/11/12 07:59:42;;;;;;;6.87;5.20;;;;;;;3.57;97.08;102489.53;5031918;28;20217;-71
2022/11/12 08:02:09;;;;;;;7.67;5.10;;;;;;;3.64;97.35;102485.94;5024583;28;20215;-74
2022/11/12 08:04:35;;;;;;;7.53;5.70;;;;;;;3.73;97.31;102485.03;5026300;28;20238;-72
2022/11/12 08:07:02;;;;;;;8.57;5.53;;;;;;;3.81;98.19;102485.84;5027473;28;20201;-72
2022/11/12 08:09:28;;;;;;;8.67;6.00;;;;;;;3.91;98.76;102486.69;5031561;28;20202;-71
2022/11/12 08:11:55;;;;;;;6.67;5.90;;;;;;;4.03;99.49;102491.88;5032805;28;20209;-71
2022/11/12 08:14:21;;;;;;;7.93;6.10;;;;;;;4.15;100.00;102500.56;5023440;28;20230;-72
2022/11/12 08:16:49;;;;;;;8.57;7.03;;;;;;;4.31;100.00;102496.03;5020324;28;20214;-72
2022/11/12 08:19:16;;;;;;;8.20;6.43;;;;;;;4.46;100.00;102493.28;5019660;28;20286;-72
2022/11/12 08:21:43;;;;;;;8.73;6.53;;;;;;;4.63;100.00;102495.78;5021876;28;20211;-70
2022/11/12 08:24:09;;;;;;;8.17;5.90;;;;;;;4.83;100.00;102501.72;5023034;28;20218;-71
2022/11/12 08:26:36;;;;;;;7.97;6.20;;;;;;;5.01;100.00;102495.38;5027493;28;20861;-71
2022/11/12 08:29:03;;;;;;;8.40;7.20;;;;;;;5.18;100.00;102489.91;5024914;28;20198;-71
2022/11/12 08:31:30;;;;;;;13.27;7.33;;;;;;;5.38;100.00;102498.44;5028907;28;20222;-71
2022/11/12 08:33:58;;;;;;;8.87;6.40;;;;;;;5.59;100.00;102500.81;5027063;28;20332;-71
2022/11/12 08:36:24;;;;;;;8.13;5.73;;;;;;;5.81;100.00;102484.66;5025192;28;20203;-71
2022/11/12 08:38:53;;;;;;;5.90;5.30;;;;;;;6.03;100.00;102479.97;5027603;28;20206;-70
2022/11/12 08:41:19;;;;;;;8.30;5.87;;;;;;;6.21;100.00;102490.25;5023239;28;20237;-71
2022/11/12 08:43:46;;;;;;;7.37;5.30;;;;;;;6.42;100.00;102491.69;5023101;28;20688;-72
2022/11/12 08:46:12;;;;;;;6.80;5.07;;;;;;;6.58;100.00;102493.16;5027224;28;20229;-72
2022/11/12 08:48:40;;;;;;;6.00;5.40;;;;;;;6.76;100.00;102494.63;5027383;28;20682;-73
2022/11/12 08:51:08;;;;;;;8.10;5.10;;;;;;;6.94;100.00;102494.28;5023977;28;20678;-71
2022/11/12 08:53:34;;;;;;;4.93;4.43;;;;;;;7.09;100.00;102498.41;5025553;28;20229;-72
2022/11/12 08:56:01;;;;;;;6.13;4.83;;;;;;;7.25;100.00;102505.13;5024027;28;20225;-72
2022/11/12 08:58:27;;;;;;;7.63;4.77;;;;;;;7.40;100.00;102494.22;5023205;28;20203;-70
2022/11/12 09:00:55;;;;;;;8.53;4.73;;;;;;;7.55;100.00;102493.03;5021412;28;20206;-72
2022/11/12 09:03:23;;;;;;;4.80;4.30;;;;;;;7.69;100.00;102498.91;5022289;28;20199;-71
2022/11/12 09:05:51;;;;;;;4.60;4.17;;;;;;;7.83;100.00;102494.19;5021435;28;20237;-71
2022/11/12 09:08:21;;;;;;;7.37;4.57;;;;;;;7.95;100.00;102493.00;5019220;28;20194;-72
2022/11/12 09:10:48;;;;;;;7.40;5.07;;;;;;;8.08;100.00;102494.47;5018215;28;20680;-72
2022/11/12 09:13:16;;;;;;;5.13;4.63;;;;;;;8.20;100.00;102486.22;5021897;28;20683;-72
2022/11/12 09:15:42;;;;;;;5.57;4.30;;;;;;;8.34;100.00;102484.13;5017557;28;20226;-70
2022/11/12 09:18:12;;;;;;;5.83;5.03;;;;;;;8.46;99.51;102490.91;5013968;28;20201;-71
2022/11/12 09:20:39;;;;;;;5.00;4.50;;;;;;;8.60;98.70;102488.75;5015537;28;20206;-72
2022/11/12 09:23:07;;;;;;;6.73;4.80;;;;;;;8.73;97.78;102497.31;5019672;28;20199;-72
2022/11/12 09:25:36;;;;;;;7.37;4.60;;;;;;;8.87;97.09;102492.50;5015446;28;20608;-72
2022/11/12 09:28:07;;;;;;;9.33;4.50;;;;;;;9.03;96.50;102500.91;5012903;28;20232;-72
2022/11/12 09:30:34;;;;;;;5.50;4.60;;;;;;;9.16;95.30;102504.09;5016880;28;20679;-72
2022/11/12 09:33:01;;;;;;;4.70;4.30;;;;;;;9.26;93.77;102502.94;5014495;28;20582;-73
2022/11/12 09:35:27;;;;;;;5.67;4.20;;;;;;;9.32;92.92;102500.09;5013409;28;20226;-72
2022/11/12 09:37:54;;;;;;;5.33;4.07;;;;;;;9.38;92.44;102494.59;5018961;28;20564;-72
2022/11/12 09:40:20;;;;;;;6.73;4.30;;;;;;;9.43;91.39;102505.13;5015596;28;20212;-72
2022/11/12 09:42:52;;;;;;;8.03;4.40;;;;;;;9.50;91.04;102504.88;5019251;28;20395;-72
2022/11/12 09:45:25;;;;;;;5.10;3.80;;;;;;;9.56;89.93;102507.38;5020910;28;20253;-71
2022/11/12 09:47:55;;;;;;;5.50;3.97;;;;;;;9.60;89.79;102509.03;5018704;28;20228;-73
2022/11/12 09:50:26;;;;;;;5.30;4.80;;;;;;;9.66;89.71;102505.31;5016796;28;20191;-71
2022/11/12 09:53:02;;;;;;;7.67;4.67;;;;;;;9.72;88.84;102500.66;5017644;28;20244;-71
2022/11/12 09:55:33;;;;;;;5.40;4.23;;;;;;;9.78;88.86;102502.28;5015050;28;20237;-72
2022/11/12 09:58:02;;;;;;;5.17;4.67;;;;;;;9.85;88.44;102510.94;5013427;28;20210;-72
2022/11/12 10:00:29;;;;;;;6.03;4.40;;;;;;;9.91;88.52;102508.09;5014714;28;20289;-73
2022/11/12 10:03:03;;;;;;;5.83;4.63;;;;;;;9.97;88.63;102505.25;5018540;28;20199;-72
2022/11/12 10:05:33;;;;;;;7.17;4.50;;;;;;;10.05;88.65;102505.84;5020397;28;20234;-72
2022/11/12 10:08:18;;;;;;;5.63;4.70;;;;;;;10.12;88.43;102502.09;5019837;28;20196;-72
2022/11/12 10:10:47;;;;;;;5.47;4.57;;;;;;;10.18;88.08;102499.25;5021008;28;20226;-72
2022/11/12 10:13:28;;;;;;;9.47;5.13;;;;;;;10.24;87.77;102501.72;5022085;28;20198;-72
2022/11/12 10:19:14;;;;;;;10.17;4.63;;;;;;;10.37;87.39;102504.88;5029423;28;20256;-72
2022/11/12 10:21:51;;;;;;;7.60;5.27;;;;;;;10.45;87.25;102508.13;5019457;28;20642;-73
2022/11/12 10:24:21;;;;;;;7.67;4.93;;;;;;;10.51;87.72;102507.06;5019486;28;20207;-71
2022/11/12 10:26:48;;;;;;;8.00;4.50;;;;;;;10.57;87.77;102505.03;5021480;28;20199;-72
2022/11/12 10:29:28;;;;;;;6.43;4.83;;;;;;;10.67;87.59;102505.63;5018942;28;20202;-71
2022/11/12 10:31:54;;;;;;;9.90;5.43;;;;;;;10.73;87.85;102500.09;5020378;28;20207;-73
2022/11/12 10:34:23;;;;;;;6.20;4.97;;;;;;;10.81;87.90;102490.03;5022282;28;20227;-72
2022/11/12 10:36:53;;;;;;;6.50;5.03;;;;;;;10.87;87.99;102489.81;5025070;28;20617;-72
2022/11/12 10:39:34;;;;;;;7.47;5.00;;;;;;;10.93;87.56;102481.56;5024215;28;20696;-73
2022/11/12 10:42:06;;;;;;;6.40;4.63;;;;;;;10.99;87.55;102484.03;5031034;28;20214;-72
2022/11/12 10:44:34;;;;;;;5.40;4.37;;;;;;;11.06;87.47;102485.56;5033701;28;20243;-73
2022/11/12 10:47:21;;;;;;;4.43;3.97;;;;;;;11.13;87.33;102471.06;5031122;28;20311;-72
2022/11/12 10:50:05;;;;;;;9.97;5.00;;;;;;;11.23;87.14;102478.75;5026944;28;20586;-72
2022/11/12 10:52:31;;;;;;;6.10;4.43;;;;;;;11.29;86.72;102467.81;5019054;28;20209;-72
2022/11/12 10:55:06;;;;;;;4.67;4.00;;;;;;;11.35;86.43;102459.59;5024701;28;20244;-73
2022/11/12 10:57:32;;;;;;;4.77;4.23;;;;;;;11.41;86.20;102462.91;5024403;28;20233;-73
2022/11/12 11:00:17;;;;;;;4.27;3.60;;;;;;;11.50;85.92;102467.03;5023133;28;20252;-72
2022/11/12 11:02:47;;;;;;;3.93;3.53;;;;;;;11.56;85.37;102468.59;5023209;28;20214;-71
2022/11/12 11:05:32;;;;;;;4.07;3.67;;;;;;;11.63;85.29;102457.63;5031404;28;20259;-73
2022/11/12 11:07:58;;;;;;;5.03;3.30;;;;;;;11.70;84.73;102455.56;5022511;28;20199;-73
2022/11/12 11:10:27;;;;;;;5.17;3.43;;;;;;;11.75;84.22;102446.47;5020033;28;20203;-73
2022/11/12 11:13:17;;;;;;;6.13;3.70;;;;;;;11.83;83.74;102440.84;5027113;28;20221;-73
2022/11/12 11:15:58;;;;;;;4.13;3.13;;;;;;;11.90;83.31;102446.81;5032573;28;21522;-71
2022/11/12 11:18:25;;;;;;;5.67;2.80;;;;;;;11.96;82.81;102442.09;5030598;28;20213;-72
2022/11/12 11:21:01;;;;;;;7.53;3.97;;;;;;;12.02;82.26;102439.16;5023023;28;20200;-72
2022/11/12 11:23:32;;;;;;;5.83;3.23;;;;;;;12.10;81.65;102441.53;5025396;28;20198;-73
2022/11/12 11:26:06;;;;;;;4.83;3.00;;;;;;;12.14;81.16;102433.34;5030385;28;20218;-72
2022/11/12 11:28:40;;;;;;;4.87;2.70;;;;;;;12.18;80.17;102432.25;5031523;28;20200;-73
2022/11/12 11:31:23;;;;;;;4.47;2.70;;;;;;;12.22;79.24;102427.66;5038570;28;20210;-72
2022/11/12 11:33:57;;;;;;;5.10;3.80;;;;;;;12.27;78.97;102428.34;5027700;28;20214;-72
2022/11/12 11:36:33;;;;;;;7.47;3.97;;;;;;;12.34;78.94;102435.19;5019756;28;20198;-71
2022/11/12 11:39:10;;;;;;;4.33;3.93;;;;;;;12.43;79.79;102433.91;5016938;28;20222;-73
2022/11/12 11:41:48;;;;;;;6.37;4.63;;;;;;;12.51;80.17;102427.31;5021039;28;20202;-73
2022/11/12 11:44:25;;;;;;;7.47;4.90;;;;;;;12.56;80.50;102421.72;5023079;28;20195;-73
2022/11/12 11:47:09;;;;;;;5.93;5.00;;;;;;;12.57;80.64;102428.81;5023134;28;20203;-72
2022/11/12 11:50:06;;;;;;;5.70;5.13;;;;;;;12.59;81.02;102434.09;5026597;28;20225;-73
2022/11/12 11:52:44;;;;;;;5.20;4.70;;;;;;;12.59;81.59;102439.44;5006664;28;20205;-72
2022/11/12 11:55:21;;;;;;;5.43;4.93;;;;;;;12.60;81.75;102433.16;5028242;28;20225;-71
2022/11/12 11:57:59;;;;;;;6.57;4.97;;;;;;;12.60;82.05;102426.03;5035762;28;20198;-72
2022/11/12 12:00:35;;;;;;;7.70;5.00;;;;;;;12.62;82.15;102425.97;5031387;28;20202;-73